To NAV CANADA Home Page Login to a new session Search on AWWS site Feedback and Comments Disclaimer Vers la page française équivalente Tips FAQ What's new on the site To the Forecasts and Observations / NOTAM section To "File a Flight Plan" website Publications and other links Update of the User's profile FIC Telephone Numbers My Weather Data Folder Route Weather Data Regional Weather Data Local Weather Data To the Forecasts and Observations / NOTAM section
Request Generated 09/03/2015 at 04:24:59 UTC . Weather information available at that time is displayed.

METAR/TAF

KELOWNA/BC    (show WxCam)

METAR CYLW 030400Z AUTO 04003KT 010V070 9SM SCT100 OVC210 15/01 A2984
RMK SLP107 DENSITY ALT 1700FT=
METAR CYLW 030300Z AUTO VRB02KT 9SM SCT090 SCT230 15/02 A2982 RMK
SLP101 DENSITY ALT 1800FT=
METAR CYLW 030200Z AUTO 23005KT 9SM CLR 18/M02 A2980 RMK SLP091
DENSITY ALT 2200FT=

TAF CYLW 030038Z 0301/0313 22012KT P6SM SCT080
BECMG 0302/0304 VRB03KT
RMK FCST BASED ON AUTO OBS. NXT FCST BY 030700Z=
Your time UTC time
Weather data provided by Environment Canada and NAV CANADA